Time;durP1;ratioP1;P1;durP2;ratioP2;P2;SDS_P1;SDS_P2;PMS_P1;PMS_P2;Temp;Humidity;BMP_temperature;BMP_pressure;BME280_temperature;BME280_humidity;BME280_pressure;Samples;Min_cycle;Max_cycle;Signal;HPM_P1;HPM_P2
2023/10/21 00:00:09;;;;;;;1.40;1.30;;;;;;;12.13;100.00;154475.97;5013784;28;20450;-77
2023/10/21 00:02:39;;;;;;;1.70;0.83;;;;;;;12.16;100.00;154483.78;5037286;28;20463;-77
2023/10/21 00:05:08;;;;;;;2.40;0.90;;;;;;;12.16;100.00;154482.47;5021702;28;20586;-77
2023/10/21 00:07:34;;;;;;;1.60;1.17;;;;;;;12.16;100.00;154482.47;5006532;28;20813;-77
2023/10/21 00:10:01;;;;;;;1.30;0.80;;;;;;;12.18;100.00;154488.94;5006201;28;20464;-76
2023/10/21 00:12:28;;;;;;;1.20;1.00;;;;;;;12.16;100.00;154483.78;5025715;28;20452;-77
2023/10/21 00:14:54;;;;;;;2.57;1.07;;;;;;;12.16;100.00;154483.78;5008912;28;20475;-77
2023/10/21 00:17:21;;;;;;;1.17;0.87;;;;;;;12.18;100.00;154488.94;5028058;28;20706;-77
2023/10/21 00:19:47;;;;;;;1.50;0.90;;;;;;;12.16;100.00;154483.78;5011835;28;20512;-77
2023/10/21 00:22:15;;;;;;;1.30;1.00;;;;;;;12.19;100.00;154490.25;5029400;28;20455;-77
2023/10/21 00:24:42;;;;;;;1.40;1.00;;;;;;;12.21;100.00;154496.72;5030223;28;20455;-77
2023/10/21 00:27:08;;;;;;;1.30;0.80;;;;;;;12.26;100.00;154508.38;5012865;28;20439;-77
2023/10/21 00:29:35;;;;;;;1.43;1.00;;;;;;;12.28;100.00;154513.59;5035586;28;20975;-77
2023/10/21 00:32:04;;;;;;;0.90;0.70;;;;;;;12.31;100.00;154520.09;5044268;28;20459;-77
2023/10/21 00:34:31;;;;;;;1.57;0.80;;;;;;;12.31;100.00;154520.09;5012552;28;20956;-77
2023/10/21 00:36:58;;;;;;;1.20;0.73;;;;;;;12.30;100.00;154518.78;5010913;28;20428;-77
2023/10/21 00:39:26;;;;;;;1.20;0.80;;;;;;;12.32;100.00;154523.94;5022387;28;20441;-77
2023/10/21 00:41:52;;;;;;;1.20;0.70;;;;;;;12.32;100.00;154523.94;4995501;28;20448;-77
2023/10/21 00:44:19;;;;;;;2.07;0.90;;;;;;;12.33;100.00;154525.25;5013454;28;20443;-78
2023/10/21 00:46:45;;;;;;;1.40;0.80;;;;;;;12.35;100.00;154531.75;5004974;28;20440;-77
2023/10/21 00:49:13;;;;;;;3.30;0.80;;;;;;;12.39;100.00;154540.84;5018147;28;20997;-77
2023/10/21 00:51:41;;;;;;;1.03;0.60;;;;;;;12.40;100.00;154543.41;5030747;28;20446;-77
2023/10/21 00:54:08;;;;;;;1.93;0.80;;;;;;;12.41;100.00;154546.00;5030277;28;20459;-77
2023/10/21 00:56:36;;;;;;;2.03;0.80;;;;;;;12.42;100.00;154549.88;5006022;28;20458;-77
2023/10/21 00:59:03;;;;;;;1.30;1.00;;;;;;;12.43;100.00;154552.50;5012227;28;20442;-77
2023/10/21 01:01:30;;;;;;;1.00;0.60;;;;;;;12.45;100.00;154556.34;5012608;28;20498;-77
2023/10/21 01:03:57;;;;;;;2.30;1.50;;;;;;;12.44;100.00;154555.09;5012537;28;20792;-77
2023/10/21 01:06:24;;;;;;;1.17;0.70;;;;;;;12.43;100.00;154552.50;5021443;28;20822;-77
2023/10/21 01:08:50;;;;;;;1.20;0.70;;;;;;;12.43;100.00;154551.19;5028444;28;20475;-77
2023/10/21 01:11:17;;;;;;;1.00;0.53;;;;;;;12.44;100.00;154553.78;5014545;28;20467;-77
2023/10/21 01:13:45;;;;;;;1.10;0.60;;;;;;;12.41;100.00;154547.31;5030460;28;20561;-77
2023/10/21 01:16:12;;;;;;;1.30;0.70;;;;;;;12.43;100.00;154551.19;5012416;28;20443;-77
2023/10/21 01:18:39;;;;;;;1.80;0.60;;;;;;;12.41;100.00;154546.00;5026083;28;20962;-77
2023/10/21 01:21:06;;;;;;;1.33;0.70;;;;;;;12.46;100.00;154558.97;5040599;28;20443;-77
2023/10/21 01:23:34;;;;;;;1.40;0.60;;;;;;;12.46;100.00;154560.28;5016004;28;20549;-76
2023/10/21 01:26:01;;;;;;;1.13;0.60;;;;;;;12.45;100.00;154556.34;5024190;28;20442;-77
2023/10/21 01:28:28;;;;;;;0.93;0.57;;;;;;;12.44;100.00;154555.09;5001265;28;20483;-77
2023/10/21 01:30:55;;;;;;;1.40;0.50;;;;;;;12.45;100.00;154557.66;5012903;28;20447;-77
2023/10/21 01:33:21;;;;;;;1.77;0.87;;;;;;;12.47;100.00;154561.59;5012259;28;20447;-77
2023/10/21 01:35:48;;;;;;;5.10;0.80;;;;;;;12.44;100.00;154553.78;4993335;28;20510;-77
2023/10/21 01:38:15;;;;;;;1.10;0.70;;;;;;;12.45;100.00;154556.34;4990110;28;20810;-77
2023/10/21 01:40:43;;;;;;;1.07;0.50;;;;;;;12.43;100.00;154551.19;5030422;28;20444;-77
2023/10/21 01:43:10;;;;;;;1.53;0.53;;;;;;;12.41;100.00;154546.00;5012322;28;20521;-77
2023/10/21 01:45:36;;;;;;;0.90;0.50;;;;;;;12.43;100.00;154551.19;5006831;28;20447;-77
2023/10/21 01:48:04;;;;;;;1.00;0.60;;;;;;;12.45;100.00;154557.66;4998659;28;20467;-76
2023/10/21 01:50:31;;;;;;;1.27;0.70;;;;;;;12.44;100.00;154555.09;4989281;28;20456;-77
2023/10/21 01:52:58;;;;;;;1.63;0.73;;;;;;;12.43;100.00;154552.50;5009943;28;20454;-77
2023/10/21 01:55:25;;;;;;;0.97;0.47;;;;;;;12.45;100.00;154556.34;5027724;28;20452;-77
2023/10/21 01:57:53;;;;;;;1.07;0.40;;;;;;;12.47;100.00;154561.59;5032254;28;20487;-77
2023/10/21 02:00:20;;;;;;;1.13;0.50;;;;;;;12.46;100.00;154558.97;4993732;28;20997;-77
2023/10/21 02:02:50;;;;;;;1.20;0.57;;;;;;;12.45;100.00;154557.66;5010840;28;20506;-77
2023/10/21 02:05:17;;;;;;;1.00;0.60;;;;;;;12.46;100.00;154560.28;5006012;28;20534;-77
2023/10/21 02:07:43;;;;;;;1.07;0.50;;;;;;;12.45;100.00;154556.34;5007545;28;20451;-77
2023/10/21 02:10:10;;;;;;;1.03;0.60;;;;;;;12.46;100.00;154560.28;5009001;28;20467;-76
2023/10/21 02:12:37;;;;;;;1.10;0.57;;;;;;;12.49;100.00;154566.75;5032317;28;20450;-77
2023/10/21 02:15:06;;;;;;;0.90;0.40;;;;;;;12.48;100.00;154564.16;5028711;28;20826;-77
2023/10/21 02:17:33;;;;;;;0.90;0.40;;;;;;;12.48;100.00;154565.44;5028668;28;20471;-77
2023/10/21 02:19:59;;;;;;;1.10;0.60;;;;;;;12.50;100.00;154570.63;5000972;28;20447;-77
2023/10/21 02:22:26;;;;;;;0.90;0.40;;;;;;;12.52;100.00;154575.78;5023779;28;20451;-76
2023/10/21 02:24:54;;;;;;;1.00;0.40;;;;;;;12.52;100.00;154575.78;5029423;28;20538;-77
2023/10/21 02:27:21;;;;;;;0.80;0.40;;;;;;;12.50;100.00;154569.31;5010781;28;20459;-77
2023/10/21 02:29:48;;;;;;;0.90;0.47;;;;;;;12.50;100.00;154569.31;5004520;28;20470;-76
2023/10/21 02:32:16;;;;;;;1.00;0.47;;;;;;;12.48;100.00;154564.16;4992977;28;20467;-77
2023/10/21 02:34:42;;;;;;;1.17;0.50;;;;;;;12.47;100.00;154561.59;4998845;28;20466;-77
2023/10/21 02:37:30;;;;;;;1.17;0.50;;;;;;;12.45;100.00;154557.66;5023366;28;20460;-77
2023/10/21 02:39:57;;;;;;;6.57;0.67;;;;;;;12.40;100.00;154543.41;5027404;28;20436;-77
2023/10/21 02:42:23;;;;;;;1.00;0.40;;;;;;;12.37;100.00;154535.59;5010698;28;20474;-77
2023/10/21 02:44:52;;;;;;;0.90;0.40;;;;;;;12.33;100.00;154525.25;5011113;28;20455;-77
2023/10/21 02:47:19;;;;;;;0.90;0.53;;;;;;;12.30;100.00;154518.78;5032183;28;20520;-77
2023/10/21 02:49:46;;;;;;;1.37;0.50;;;;;;;12.30;100.00;154517.47;5017687;28;20834;-77
2023/10/21 02:52:13;;;;;;;1.20;0.50;;;;;;;12.25;100.00;154504.50;5010512;28;20451;-77
2023/10/21 02:54:39;;;;;;;1.50;0.60;;;;;;;12.21;100.00;154496.72;5010195;28;20558;-77
2023/10/21 02:57:06;;;;;;;1.40;0.60;;;;;;;12.18;100.00;154488.94;4991646;28;20541;-77
2023/10/21 02:59:32;;;;;;;1.00;0.50;;;;;;;12.16;100.00;154483.78;5007175;28;20487;-77
2023/10/21 03:01:59;;;;;;;1.13;0.60;;;;;;;12.13;100.00;154475.97;5009086;28;20441;-77
2023/10/21 03:04:27;;;;;;;1.20;0.50;;;;;;;12.12;100.00;154473.41;5010394;28;20482;-77
2023/10/21 03:06:53;;;;;;;1.20;0.60;;;;;;;12.09;100.00;154465.63;5014362;28;20460;-77
2023/10/21 03:09:20;;;;;;;1.80;0.50;;;;;;;12.07;100.00;154459.16;5008148;28;20477;-77
2023/10/21 03:11:47;;;;;;;0.80;0.37;;;;;;;12.05;100.00;154455.25;5027214;28;20443;-77
2023/10/21 03:14:14;;;;;;;1.20;0.40;;;;;;;12.05;100.00;154455.25;4984503;28;20492;-77
2023/10/21 03:16:40;;;;;;;2.30;0.50;;;;;;;12.02;100.00;154447.44;4974658;28;20449;-77
2023/10/21 03:19:07;;;;;;;1.17;0.60;;;;;;;11.98;100.00;154435.81;4987570;28;20458;-76
2023/10/21 03:21:35;;;;;;;0.80;0.40;;;;;;;11.99;100.00;154439.66;4995957;28;20465;-77
2023/10/21 03:24:02;;;;;;;0.93;0.40;;;;;;;11.99;100.00;154439.66;4971371;28;20456;-76
2023/10/21 03:26:28;;;;;;;1.00;0.50;;;;;;;11.97;100.00;154434.50;4990129;28;20444;-77
2023/10/21 03:28:55;;;;;;;1.00;0.40;;;;;;;11.97;100.00;154433.19;4992621;28;20537;-77
2023/10/21 03:31:21;;;;;;;1.30;0.50;;;;;;;11.98;100.00;154437.09;4996223;28;20506;-77
2023/10/21 03:33:48;;;;;;;0.80;0.40;;;;;;;11.96;100.00;154431.94;4990494;28;20460;-77
2023/10/21 03:36:14;;;;;;;0.87;0.40;;;;;;;11.96;100.00;154431.94;5008908;28;20510;-77
2023/10/21 03:38:43;;;;;;;0.90;0.37;;;;;;;11.95;100.00;154428.00;5000708;28;20545;-77
2023/10/21 03:41:11;;;;;;;0.80;0.33;;;;;;;11.96;100.00;154431.94;5001986;28;20519;-77
2023/10/21 03:43:38;;;;;;;0.80;0.30;;;;;;;11.95;100.00;154429.31;5008215;28;20456;-77
2023/10/21 03:46:06;;;;;;;0.87;0.40;;;;;;;11.94;100.00;154425.47;4972376;28;20454;-77
2023/10/21 03:48:32;;;;;;;1.93;0.60;;;;;;;11.95;100.00;154428.00;4974271;28;20460;-77
2023/10/21 03:51:04;;;;;;;3.00;0.50;;;;;;;11.95;100.00;154429.31;4974478;28;20483;-77
2023/10/21 03:53:31;;;;;;;0.87;0.50;;;;;;;11.94;100.00;154426.72;4988595;28;20452;-77
2023/10/21 03:55:59;;;;;;;1.03;0.50;;;;;;;11.93;100.00;154424.16;5000168;28;20452;-77
2023/10/21 03:58:26;;;;;;;1.23;0.30;;;;;;;11.92;100.00;154421.53;5031767;28;20985;-77
2023/10/21 04:00:54;;;;;;;1.27;0.50;;;;;;;11.94;100.00;154426.72;5004406;28;20967;-77
2023/10/21 04:03:20;;;;;;;1.00;0.50;;;;;;;11.96;100.00;154430.63;5006265;28;20807;-77
2023/10/21 04:05:47;;;;;;;1.00;0.33;;;;;;;11.96;100.00;154431.94;4990576;28;20527;-77
2023/10/21 04:08:14;;;;;;;0.90;0.40;;;;;;;11.96;100.00;154431.94;5012012;28;20463;-77
2023/10/21 04:10:40;;;;;;;1.20;0.50;;;;;;;11.94;100.00;154426.72;4996647;28;20479;-77
2023/10/21 04:13:08;;;;;;;1.00;0.50;;;;;;;11.95;100.00;154429.31;5013834;28;20459;-77
2023/10/21 04:15:34;;;;;;;1.20;0.50;;;;;;;11.97;100.00;154434.50;5051089;28;20470;-77
2023/10/21 04:18:01;;;;;;;0.90;0.40;;;;;;;11.97;100.00;154434.50;5033880;28;20804;-77
2023/10/21 04:20:27;;;;;;;1.10;0.57;;;;;;;11.99;100.00;154438.41;5013593;28;20509;-77
2023/10/21 04:22:54;;;;;;;2.40;0.67;;;;;;;12.01;100.00;154444.91;5013340;28;20546;-77
2023/10/21 04:25:21;;;;;;;1.33;0.50;;;;;;;12.03;100.00;154448.75;5031001;28;20478;-77
2023/10/21 04:27:47;;;;;;;1.63;0.80;;;;;;;12.05;100.00;154455.25;5027634;28;21228;-77
2023/10/21 04:30:15;;;;;;;1.57;0.43;;;;;;;12.07;100.00;154460.41;5029164;28;20483;-77
2023/10/21 04:32:42;;;;;;;1.07;0.50;;;;;;;12.08;100.00;154463.03;5026178;28;20460;-77
2023/10/21 04:35:09;;;;;;;1.20;0.60;;;;;;;12.08;100.00;154463.03;5012322;28;20454;-76
2023/10/21 04:37:35;;;;;;;1.47;0.50;;;;;;;12.06;100.00;154457.84;5012329;28;20847;-77
2023/10/21 04:40:03;;;;;;;1.70;0.70;;;;;;;12.05;100.00;154455.25;5024757;28;20432;-77
2023/10/21 04:42:29;;;;;;;1.20;0.67;;;;;;;12.06;100.00;154457.84;5011557;28;20440;-77
2023/10/21 04:44:56;;;;;;;1.00;0.40;;;;;;;12.06;100.00;154457.84;4993736;28;20432;-77
2023/10/21 04:47:24;;;;;;;1.40;0.40;;;;;;;12.08;100.00;154463.03;5004798;28;20977;-77
2023/10/21 04:49:50;;;;;;;1.10;0.50;;;;;;;12.12;100.00;154473.41;4995617;28;20477;-77
2023/10/21 04:52:19;;;;;;;0.97;0.53;;;;;;;12.10;100.00;154466.88;5028726;28;20542;-77
2023/10/21 04:54:45;;;;;;;1.00;0.50;;;;;;;12.11;100.00;154469.50;5012975;28;20782;-77
2023/10/21 04:57:12;;;;;;;1.10;0.60;;;;;;;12.10;100.00;154466.88;5039494;28;20463;-77
2023/10/21 04:59:39;;;;;;;0.90;0.60;;;;;;;12.09;100.00;154465.63;5016543;28;20497;-77
2023/10/21 05:02:05;;;;;;;0.90;0.50;;;;;;;12.07;100.00;154460.41;5022913;28;20452;-77
2023/10/21 05:04:33;;;;;;;1.40;0.53;;;;;;;12.07;100.00;154459.16;5006751;28;21356;-77
2023/10/21 05:07:00;;;;;;;1.40;0.83;;;;;;;12.07;100.00;154459.16;4999081;28;20840;-77
2023/10/21 05:09:26;;;;;;;0.90;0.53;;;;;;;12.11;100.00;154469.50;5019431;28;21190;-77
2023/10/21 05:11:53;;;;;;;1.30;0.50;;;;;;;12.11;100.00;154469.50;5000679;28;20881;-77
2023/10/21 05:14:19;;;;;;;1.20;0.80;;;;;;;12.11;100.00;154470.81;4998886;28;21374;-77
2023/10/21 05:16:46;;;;;;;0.93;0.40;;;;;;;12.12;100.00;154472.13;5016498;28;20519;-77
2023/10/21 05:19:13;;;;;;;1.33;0.60;;;;;;;12.13;100.00;154475.97;5016080;28;20810;-77
2023/10/21 05:21:41;;;;;;;1.40;0.80;;;;;;;12.14;100.00;154478.59;5017855;28;20943;-77
2023/10/21 05:24:08;;;;;;;1.70;0.40;;;;;;;12.14;100.00;154477.28;5017848;28;20463;-76
2023/10/21 05:26:34;;;;;;;1.37;0.63;;;;;;;12.14;100.00;154478.59;5019229;28;20462;-77
2023/10/21 05:29:01;;;;;;;0.80;0.40;;;;;;;12.16;100.00;154482.47;5018977;28;20805;-77
2023/10/21 05:31:27;;;;;;;0.90;0.67;;;;;;;12.14;100.00;154478.59;5016987;28;20490;-76
2023/10/21 05:33:57;;;;;;;1.00;0.50;;;;;;;12.13;100.00;154475.97;4998591;28;20514;-77
2023/10/21 05:36:24;;;;;;;1.33;0.50;;;;;;;12.14;100.00;154478.59;5018238;28;20818;-77
2023/10/21 05:38:51;;;;;;;1.23;0.50;;;;;;;12.15;100.00;154481.16;4998442;28;20460;-77
2023/10/21 05:41:18;;;;;;;1.00;0.60;;;;;;;12.17;100.00;154485.06;5000851;28;20966;-76
2023/10/21 05:43:45;;;;;;;1.03;0.60;;;;;;;12.14;100.00;154478.59;5000392;28;20444;-77
2023/10/21 05:46:12;;;;;;;1.27;0.73;;;;;;;12.14;100.00;154478.59;5014131;28;20464;-77
2023/10/21 05:48:39;;;;;;;1.07;0.50;;;;;;;12.12;100.00;154473.41;5016879;28;20959;-77
2023/10/21 05:51:05;;;;;;;1.83;0.60;;;;;;;12.12;100.00;154473.41;5017703;28;20944;-76
2023/10/21 05:53:33;;;;;;;1.20;0.57;;;;;;;12.11;100.00;154470.81;5018594;28;20464;-75
2023/10/21 05:56:01;;;;;;;1.00;0.60;;;;;;;12.11;100.00;154470.81;4998745;28;20490;-76
2023/10/21 05:58:27;;;;;;;0.90;0.60;;;;;;;12.12;100.00;154473.41;4999762;28;20913;-75
2023/10/21 06:00:54;;;;;;;1.67;0.80;;;;;;;12.10;100.00;154468.19;5018389;28;20448;-76
2023/10/21 06:03:20;;;;;;;2.00;0.90;;;;;;;12.07;100.00;154459.16;5018633;28;20463;-76
2023/10/21 06:05:47;;;;;;;1.30;0.57;;;;;;;12.07;100.00;154459.16;5015959;28;21050;-75
2023/10/21 06:08:14;;;;;;;1.00;0.60;;;;;;;12.08;100.00;154463.03;5018511;28;20460;-75
2023/10/21 06:10:44;;;;;;;1.20;0.70;;;;;;;12.13;100.00;154474.66;5017896;28;20476;-76
2023/10/21 06:13:12;;;;;;;2.23;0.80;;;;;;;12.13;100.00;154475.97;5007890;28;20457;-76
2023/10/21 06:15:39;;;;;;;1.87;0.70;;;;;;;12.13;100.00;154475.97;5014200;28;21068;-76
2023/10/21 06:18:06;;;;;;;1.10;0.60;;;;;;;12.11;100.00;154470.81;4999393;28;20452;-76
2023/10/21 06:20:33;;;;;;;1.43;0.83;;;;;;;12.08;100.00;154461.72;4997442;28;20897;-76
2023/10/21 06:23:00;;;;;;;2.13;0.70;;;;;;;12.06;100.00;154457.84;5005619;28;20459;-75
2023/10/21 06:25:26;;;;;;;1.10;0.70;;;;;;;12.08;100.00;154461.72;5002567;28;20518;-76
2023/10/21 06:27:53;;;;;;;1.23;0.70;;;;;;;12.10;100.00;154468.19;5026321;28;20911;-76
2023/10/21 06:30:21;;;;;;;1.10;0.70;;;;;;;12.17;100.00;154485.06;5001792;28;20826;-76
2023/10/21 06:32:47;;;;;;;1.00;0.60;;;;;;;12.27;100.00;154509.69;5016764;28;20455;-76
2023/10/21 06:35:14;;;;;;;1.10;0.70;;;;;;;12.31;100.00;154520.09;5017927;28;20456;-76
2023/10/21 06:37:40;;;;;;;1.00;0.60;;;;;;;12.46;100.00;154558.97;5018080;28;20455;-76
2023/10/21 06:40:08;;;;;;;1.00;0.60;;;;;;;12.55;100.00;154582.34;5016044;28;20445;-76
2023/10/21 06:42:34;;;;;;;1.00;0.70;;;;;;;12.64;100.00;154605.66;4999222;28;20455;-76
2023/10/21 06:45:02;;;;;;;1.03;0.70;;;;;;;12.73;100.00;154629.00;4995580;28;20468;-75
2023/10/21 06:47:30;;;;;;;2.00;0.70;;;;;;;12.76;100.00;154636.81;5013897;28;20471;-76
2023/10/21 06:49:56;;;;;;;1.40;0.80;;;;;;;12.75;100.00;154634.19;5015378;28;20541;-76
2023/10/21 06:52:23;;;;;;;1.57;0.70;;;;;;;12.72;100.00;154627.72;4998656;28;20558;-76
2023/10/21 06:54:50;;;;;;;1.20;0.60;;;;;;;12.69;100.00;154618.63;5016855;28;20451;-76
2023/10/21 06:57:21;;;;;;;1.40;0.70;;;;;;;12.69;100.00;154618.63;5017363;28;20462;-76
2023/10/21 06:59:47;;;;;;;1.00;0.67;;;;;;;12.98;100.00;154693.84;5015652;28;20483;-75
2023/10/21 07:02:14;;;;;;;1.77;0.63;;;;;;;13.53;100.00;154834.06;5015926;28;20463;-76
2023/10/21 07:04:43;;;;;;;1.40;0.70;;;;;;;14.20;100.00;155007.97;5013936;28;20453;-75
2023/10/21 07:07:10;;;;;;;1.07;0.67;;;;;;;14.85;100.00;155175.53;4998999;28;20487;-75
2023/10/21 07:09:37;;;;;;;1.13;0.63;;;;;;;15.31;100.00;155293.78;4997412;28;20452;-76
2023/10/21 07:12:05;;;;;;;1.00;0.63;;;;;;;15.81;100.00;155422.53;5018895;28;20487;-76
2023/10/21 07:14:32;;;;;;;0.97;0.53;;;;;;;16.36;97.83;155564.28;5014576;28;20975;-76
2023/10/21 07:17:00;;;;;;;1.30;0.90;;;;;;;16.59;95.12;155624.16;5014101;28;20963;-76
2023/10/21 07:19:26;;;;;;;2.37;1.23;;;;;;;16.81;94.12;155680.09;5014083;28;20444;-76
2023/10/21 07:21:56;;;;;;;2.10;0.90;;;;;;;17.31;92.35;155808.91;4997242;28;20453;-77
2023/10/21 07:24:23;;;;;;;1.30;1.10;;;;;;;17.89;88.24;155959.97;4997846;28;20443;-76
2023/10/21 07:26:50;;;;;;;2.47;0.80;;;;;;;18.35;85.82;156077.19;5000531;28;20452;-76
2023/10/21 07:29:16;;;;;;;1.40;0.80;;;;;;;18.71;83.78;156171.00;5014727;28;20471;-77
2023/10/21 07:31:43;;;;;;;2.50;1.00;;;;;;;19.06;81.08;156262.19;4999005;28;20476;-77
2023/10/21 07:34:11;;;;;;;1.30;1.03;;;;;;;19.50;79.06;156374.34;5015656;28;20459;-77
2023/10/21 07:36:38;;;;;;;5.60;1.17;;;;;;;19.84;77.78;156463.00;5015719;28;20459;-77
2023/10/21 07:39:07;;;;;;;1.50;1.00;;;;;;;20.01;75.40;156507.34;5004986;28;20451;-76
2023/10/21 07:41:34;;;;;;;1.90;1.27;;;;;;;20.11;74.31;156533.41;4997293;28;20954;-76
2023/10/21 07:44:01;;;;;;;3.50;2.00;;;;;;;20.01;73.63;156508.59;4996756;28;20479;-76
2023/10/21 07:46:28;;;;;;;7.63;2.87;;;;;;;19.92;73.34;156483.84;5015403;28;20966;-76
2023/10/21 07:48:56;;;;;;;1.70;1.37;;;;;;;19.30;74.46;156324.75;5017258;28;20459;-76
2023/10/21 07:51:23;;;;;;;2.10;1.33;;;;;;;18.42;77.62;156095.41;5017900;28;20475;-77
2023/10/21 07:53:50;;;;;;;3.30;1.80;;;;;;;17.72;81.56;155915.69;5015296;28;20452;-77
2023/10/21 07:56:17;;;;;;;1.00;0.60;;;;;;;17.19;82.73;155777.66;5015780;28;20814;-76
2023/10/21 07:58:44;;;;;;;2.13;1.20;;;;;;;16.91;86.55;155707.44;5015300;28;20460;-77
2023/10/21 08:01:11;;;;;;;1.20;0.60;;;;;;;16.72;87.95;155656.66;5017020;28;20462;-76
2023/10/21 08:03:38;;;;;;;1.20;0.90;;;;;;;16.59;89.40;155622.84;5016886;28;20563;-76
2023/10/21 08:06:07;;;;;;;1.10;0.63;;;;;;;16.40;91.13;155575.97;4996305;28;20602;-76
2023/10/21 08:08:34;;;;;;;2.50;0.73;;;;;;;16.23;91.33;155530.47;5013753;28;20534;-76
2023/10/21 08:11:02;;;;;;;1.07;0.63;;;;;;;16.05;92.62;155484.94;4998167;28;20467;-76
2023/10/21 08:13:30;;;;;;;2.27;0.93;;;;;;;15.93;94.18;155452.44;5003002;28;20479;-76
2023/10/21 08:15:57;;;;;;;1.80;0.70;;;;;;;15.83;95.13;155429.03;5017025;28;20459;-76
2023/10/21 08:18:24;;;;;;;1.30;0.50;;;;;;;15.77;94.87;155412.13;5016196;28;20908;-76
2023/10/21 08:20:50;;;;;;;1.20;0.70;;;;;;;15.72;93.68;155400.47;4997558;28;20451;-76
2023/10/21 08:23:17;;;;;;;2.67;0.60;;;;;;;15.74;93.49;155404.34;4992845;28;20491;-77
2023/10/21 08:25:44;;;;;;;1.77;0.67;;;;;;;15.65;94.40;155382.22;5016433;28;20464;-77
2023/10/21 08:28:11;;;;;;;2.10;0.70;;;;;;;15.67;94.82;155387.41;4997696;28;20463;-75
2023/10/21 08:30:39;;;;;;;1.00;0.40;;;;;;;15.68;95.61;155388.72;5016239;28;20468;-76
2023/10/21 08:33:06;;;;;;;1.23;0.50;;;;;;;15.65;95.39;155382.22;5014223;28;20491;-77
2023/10/21 08:35:32;;;;;;;1.57;0.50;;;;;;;15.58;97.17;155364.03;5015820;28;20771;-76
2023/10/21 08:37:59;;;;;;;1.53;0.53;;;;;;;15.52;95.54;155348.44;4996937;28;20448;-77
2023/10/21 08:40:25;;;;;;;1.10;0.50;;;;;;;15.52;96.33;155348.44;5018362;28;20476;-77
2023/10/21 08:42:52;;;;;;;0.97;0.37;;;;;;;15.50;96.23;155341.94;5022080;28;20911;-77
2023/10/21 08:45:21;;;;;;;1.10;0.50;;;;;;;15.49;95.44;155340.63;5017304;28;20455;-77
2023/10/21 08:47:50;;;;;;;1.20;0.50;;;;;;;15.54;95.01;155353.63;5001608;28;20452;-76
2023/10/21 08:50:17;;;;;;;0.90;0.50;;;;;;;15.49;92.32;155340.63;5001450;28;20460;-76
2023/10/21 08:52:44;;;;;;;1.50;0.60;;;;;;;15.53;95.04;155351.06;5020193;28;20456;-77
2023/10/21 08:55:11;;;;;;;2.20;0.60;;;;;;;15.46;96.74;155332.81;5020330;28;20459;-77
2023/10/21 08:57:38;;;;;;;1.40;0.60;;;;;;;15.44;95.23;155326.28;5004903;28;20451;-77
2023/10/21 09:00:09;;;;;;;1.13;0.40;;;;;;;15.37;96.31;155308.09;5001734;28;20459;-77
2023/10/21 09:02:35;;;;;;;0.90;0.30;;;;;;;15.38;95.31;155310.72;5018357;28;20453;-77
2023/10/21 09:05:09;;;;;;;2.20;0.50;;;;;;;15.34;96.14;155301.59;5020340;28;20455;-77
2023/10/21 09:07:45;;;;;;;1.10;0.50;;;;;;;15.37;96.51;155309.41;5001966;28;21004;-77
2023/10/21 09:10:12;;;;;;;1.10;0.40;;;;;;;15.35;95.75;155304.22;5019513;28;20447;-77
2023/10/21 09:12:41;;;;;;;1.00;0.50;;;;;;;15.39;95.68;155313.28;4999286;28;20829;-77
2023/10/21 09:15:09;;;;;;;1.10;0.30;;;;;;;15.45;97.86;155330.19;5017409;28;20843;-77
2023/10/21 09:17:38;;;;;;;1.20;0.70;;;;;;;15.50;95.26;155341.94;5007954;28;20866;-77
2023/10/21 09:20:11;;;;;;;1.43;0.60;;;;;;;15.57;97.90;155361.44;5000560;28;20449;-77
2023/10/21 09:22:39;;;;;;;1.37;0.50;;;;;;;15.52;95.48;155347.13;5019469;28;20440;-77
2023/10/21 09:25:10;;;;;;;1.50;0.70;;;;;;;15.50;97.69;155341.94;5019819;28;20460;-78
2023/10/21 09:27:38;;;;;;;1.30;0.67;;;;;;;15.44;96.75;155327.59;4999777;28;20455;-78
2023/10/21 09:30:05;;;;;;;1.10;0.50;;;;;;;15.41;95.03;155319.78;5018982;28;20543;-78
2023/10/21 09:32:33;;;;;;;1.67;0.63;;;;;;;15.47;95.27;155334.13;5002891;28;20504;-78
2023/10/21 09:35:13;;;;;;;2.20;0.53;;;;;;;15.49;98.23;155339.38;4983130;28;20800;-77
2023/10/21 09:37:40;;;;;;;0.93;0.50;;;;;;;15.44;95.95;155327.59;5019975;28;20449;-78
2023/10/21 09:40:09;;;;;;;0.90;0.50;;;;;;;15.46;96.15;155332.81;4999224;28;20582;-78
2023/10/21 09:42:38;;;;;;;0.97;0.53;;;;;;;15.48;93.78;155338.06;5005322;28;20440;-78
2023/10/21 09:45:05;;;;;;;3.83;0.90;;;;;;;15.51;95.15;155345.88;5022103;28;20474;-78
2023/10/21 09:47:34;;;;;;;1.30;0.60;;;;;;;15.50;94.71;155341.94;5021261;28;20455;-78
2023/10/21 09:50:09;;;;;;;1.00;0.47;;;;;;;15.50;96.10;155343.25;5017171;28;20483;-78
2023/10/21 09:52:42;;;;;;;0.93;0.57;;;;;;;15.42;95.77;155321.09;5019747;28;20483;-78
2023/10/21 09:55:10;;;;;;;1.03;0.60;;;;;;;15.45;94.10;155330.19;4999430;28;20479;-77
2023/10/21 09:57:37;;;;;;;2.60;0.53;;;;;;;15.50;92.95;155341.94;5000576;28;20457;-78
2023/10/21 10:00:05;;;;;;;1.90;0.60;;;;;;;15.51;94.62;155344.56;5017133;28;20447;-78
2023/10/21 10:02:32;;;;;;;1.30;0.70;;;;;;;15.54;93.45;155352.38;5000154;28;20463;-78
2023/10/21 10:04:59;;;;;;;1.00;0.57;;;;;;;15.54;89.79;155352.38;5016144;28;20819;-77
2023/10/21 10:07:26;;;;;;;2.67;0.50;;;;;;;15.58;89.81;155364.03;5001299;28;20529;-78
2023/10/21 10:09:54;;;;;;;1.50;0.53;;;;;;;15.66;90.66;155383.53;5019583;28;20455;-77
2023/10/21 10:12:24;;;;;;;1.07;0.40;;;;;;;15.69;87.21;155392.66;5003121;28;20833;-77
2023/10/21 10:14:53;;;;;;;1.67;0.50;;;;;;;15.70;87.19;155395.22;4999422;28;20491;-77
2023/10/21 10:17:47;;;;;;;1.73;0.60;;;;;;;15.80;91.20;155421.25;5019334;28;20449;-77
2023/10/21 10:20:20;;;;;;;1.50;0.70;;;;;;;15.72;88.90;155400.47;5019284;28;20466;-78
2023/10/21 10:22:49;;;;;;;1.10;0.40;;;;;;;15.81;89.31;155422.53;5018678;28;20463;-78
2023/10/21 10:25:25;;;;;;;1.90;0.63;;;;;;;15.83;88.84;155429.03;5006565;28;20529;-78
2023/10/21 10:27:57;;;;;;;1.43;0.60;;;;;;;15.79;91.50;155417.34;4999905;28;20471;-78
2023/10/21 10:30:24;;;;;;;5.70;0.90;;;;;;;15.73;89.29;155403.03;5016832;28;20454;-77
2023/10/21 10:32:51;;;;;;;1.17;0.40;;;;;;;15.81;90.57;155422.53;5017691;28;20485;-78
2023/10/21 10:35:30;;;;;;;1.60;0.63;;;;;;;15.80;89.45;155421.25;5015922;28;20460;-77
2023/10/21 10:37:59;;;;;;;1.40;0.50;;;;;;;15.79;89.63;155418.63;5015794;28;20914;-78
2023/10/21 10:40:34;;;;;;;1.10;0.60;;;;;;;15.82;87.89;155426.44;4997559;28;20452;-78
2023/10/21 10:43:03;;;;;;;1.10;0.70;;;;;;;15.84;88.20;155431.63;5015732;28;21030;-78
2023/10/21 10:45:32;;;;;;;1.43;0.60;;;;;;;15.90;88.25;155444.63;5012046;28;20463;-78
2023/10/21 10:48:02;;;;;;;0.80;0.30;;;;;;;15.95;89.03;155457.63;5013797;28;20480;-77
2023/10/21 10:50:29;;;;;;;1.80;0.57;;;;;;;15.95;86.28;155457.63;5014964;28;20460;-77
2023/10/21 10:52:56;;;;;;;1.10;0.50;;;;;;;15.98;85.91;155465.44;4994896;28;20579;-77
2023/10/21 10:55:22;;;;;;;1.07;0.43;;;;;;;16.04;85.43;155482.38;5012064;28;20814;-78
2023/10/21 10:57:52;;;;;;;0.97;0.40;;;;;;;16.04;84.67;155481.06;5016448;28;20451;-78
2023/10/21 11:00:23;;;;;;;2.30;0.40;;;;;;;16.05;84.75;155483.63;4997992;28;21002;-78
2023/10/21 11:02:50;;;;;;;1.27;0.47;;;;;;;16.06;85.04;155487.56;5014909;28;20877;-78
2023/10/21 11:05:19;;;;;;;1.30;0.50;;;;;;;16.09;85.73;155495.38;4996335;28;20455;-78
2023/10/21 11:07:47;;;;;;;0.90;0.37;;;;;;;16.04;79.81;155481.06;4997222;28;20447;-78
2023/10/21 11:10:19;;;;;;;1.30;0.47;;;;;;;16.04;84.19;155481.06;5015554;28;20907;-78
2023/10/21 11:12:45;;;;;;;1.13;0.40;;;;;;;16.06;82.73;155486.25;4998927;28;20481;-78
2023/10/21 11:15:13;;;;;;;1.27;0.47;;;;;;;16.09;85.18;155495.38;5014846;28;20494;-78
2023/10/21 11:17:40;;;;;;;1.50;0.70;;;;;;;16.07;79.57;155490.13;5017676;28;20466;-76
2023/10/21 11:20:08;;;;;;;1.00;0.47;;;;;;;16.14;81.19;155507.06;5014481;28;20809;-78